sensor_id;sensor_type;location;lat;lon;timestamp;pressure;altitude;pressure_sealevel;temperature;humidity
63665;BME280;49820;33.966;73.390;2023-02-28T00:00:38;79120.94;;;5.61;52.53
63665;BME280;49820;33.966;73.390;2023-02-28T00:03:11;79128.19;;;5.81;54.20
63665;BME280;49820;33.966;73.390;2023-02-28T00:05:40;79130.84;;;5.77;54.99
63665;BME280;49820;33.966;73.390;2023-02-28T00:08:10;79117.63;;;5.67;57.33
63665;BME280;49820;33.966;73.390;2023-02-28T00:10:38;79125.53;;;5.79;58.86
63665;BME280;49820;33.966;73.390;2023-02-28T00:13:09;79118.97;;;5.66;60.89
63665;BME280;49820;33.966;73.390;2023-02-28T00:15:39;79132.19;;;5.72;61.54
63665;BME280;49820;33.966;73.390;2023-02-28T00:18:08;79148.78;;;5.66;61.66
63665;BME280;49820;33.966;73.390;2023-02-28T00:20:37;79130.91;;;5.59;62.03
63665;BME280;49820;33.966;73.390;2023-02-28T00:23:06;79137.50;;;5.62;63.08
63665;BME280;49820;33.966;73.390;2023-02-28T00:25:35;79160.03;;;5.73;62.92
63665;BME280;49820;33.966;73.390;2023-02-28T00:28:04;79119.00;;;5.42;63.17
63665;BME280;49820;33.966;73.390;2023-02-28T00:30:33;79128.28;;;5.45;63.97
63665;BME280;49820;33.966;73.390;2023-02-28T00:33:04;79107.09;;;5.32;61.07
63665;BME280;49820;33.966;73.390;2023-02-28T00:35:33;79144.13;;;5.69;60.19
63665;BME280;49820;33.966;73.390;2023-02-28T00:38:04;79154.66;;;6.03;53.77
63665;BME280;49820;33.966;73.390;2023-02-28T00:40:35;79153.31;;;6.12;52.85
63665;BME280;49820;33.966;73.390;2023-02-28T00:43:04;79173.25;;;5.95;55.48
63665;BME280;49820;33.966;73.390;2023-02-28T00:45:33;79164.63;;;5.99;50.74
63665;BME280;49820;33.966;73.390;2023-02-28T00:48:04;79175.25;;;5.83;55.55
63665;BME280;49820;33.966;73.390;2023-02-28T00:50:33;79192.50;;;5.88;57.29
63665;BME280;49820;33.966;73.390;2023-02-28T00:53:02;79198.47;;;5.66;55.64
63665;BME280;49820;33.966;73.390;2023-02-28T00:55:31;79199.13;;;5.70;54.76
63665;BME280;49820;33.966;73.390;2023-02-28T00:58:00;79211.72;;;5.72;54.76
63665;BME280;49820;33.966;73.390;2023-02-28T01:00:29;79222.31;;;5.78;54.54
63665;BME280;49820;33.966;73.390;2023-02-28T01:02:58;79217.00;;;5.70;54.67
63665;BME280;49820;33.966;73.390;2023-02-28T01:05:27;79226.31;;;5.63;56.88
63665;BME280;49820;33.966;73.390;2023-02-28T01:07:56;79235.56;;;5.68;56.04
63665;BME280;49820;33.966;73.390;2023-02-28T01:10:28;79254.13;;;5.70;55.94
63665;BME280;49820;33.966;73.390;2023-02-28T01:12:59;79269.38;;;5.65;57.59
63665;BME280;49820;33.966;73.390;2023-02-28T01:15:29;79257.44;;;5.36;59.02
63665;BME280;49820;33.966;73.390;2023-02-28T01:18:00;79264.72;;;5.27;62.14
63665;BME280;49820;33.966;73.390;2023-02-28T01:20:31;79285.91;;;5.21;63.96
63665;BME280;49820;33.966;73.390;2023-02-28T01:23:01;79267.34;;;5.13;64.05
63665;BME280;49820;33.966;73.390;2023-02-28T01:25:30;79264.66;;;4.97;67.50
63665;BME280;49820;33.966;73.390;2023-02-28T01:27:59;79258.72;;;4.92;66.84
63665;BME280;49820;33.966;73.390;2023-02-28T01:30:28;79254.72;;;4.87;66.86
63665;BME280;49820;33.966;73.390;2023-02-28T01:32:58;79270.59;;;4.83;70.38
63665;BME280;49820;33.966;73.390;2023-02-28T01:35:27;79234.81;;;4.58;67.48
63665;BME280;49820;33.966;73.390;2023-02-28T01:37:56;79263.94;;;4.68;67.44
63665;BME280;49820;33.966;73.390;2023-02-28T02:41:04;79244.81;;;4.92;69.38
63665;BME280;49820;33.966;73.390;2023-02-28T02:44:01;79253.41;;;4.96;69.37
63665;BME280;49820;33.966;73.390;2023-02-28T02:46:39;79243.47;;;4.97;68.78
63665;BME280;49820;33.966;73.390;2023-02-28T02:49:17;79258.06;;;5.08;69.29
63665;BME280;49820;33.966;73.390;2023-02-28T02:51:52;79237.53;;;5.01;69.96
63665;BME280;49820;33.966;73.390;2023-02-28T02:54:29;79228.28;;;5.06;70.94
63665;BME280;49820;33.966;73.390;2023-02-28T02:57:06;79244.19;;;5.22;69.59
63665;BME280;49820;33.966;73.390;2023-02-28T03:03:24;79232.91;;;5.15;71.57
63665;BME280;49820;33.966;73.390;2023-02-28T03:06:01;79240.88;;;5.29;71.83
63665;BME280;49820;33.966;73.390;2023-02-28T03:08:36;79234.94;;;5.41;74.16
63665;BME280;49820;33.966;73.390;2023-02-28T03:11:12;79220.34;;;5.38;72.94
63665;BME280;49820;33.966;73.390;2023-02-28T03:14:45;79234.91;;;5.55;73.62
63665;BME280;49820;33.966;73.390;2023-02-28T03:17:35;79234.91;;;5.63;73.33
63665;BME280;49820;33.966;73.390;2023-02-28T03:24:16;79215.69;;;5.53;72.72
63665;BME280;49820;33.966;73.390;2023-02-28T03:26:54;79243.53;;;5.72;71.78
63665;BME280;49820;33.966;73.390;2023-02-28T03:29:37;79253.47;;;5.82;69.88
63665;BME280;49820;33.966;73.390;2023-02-28T03:32:35;79234.25;;;5.79;70.14
63665;BME280;49820;33.966;73.390;2023-02-28T03:35:11;79258.09;;;5.95;69.15
63665;BME280;49820;33.966;73.390;2023-02-28T03:37:44;79264.72;;;6.06;70.15
63665;BME280;49820;33.966;73.390;2023-02-28T03:40:23;79254.13;;;6.04;68.64
63665;BME280;49820;33.966;73.390;2023-02-28T03:42:59;79240.19;;;6.04;67.34
63665;BME280;49820;33.966;73.390;2023-02-28T03:45:36;79256.09;;;6.22;66.62
63665;BME280;49820;33.966;73.390;2023-02-28T03:48:13;79246.78;;;6.21;66.94
63665;BME280;49820;33.966;73.390;2023-02-28T03:50:47;79263.31;;;6.44;65.64
63665;BME280;49820;33.966;73.390;2023-02-28T03:53:32;79263.97;;;6.55;64.06
63665;BME280;49820;33.966;73.390;2023-02-28T04:01:47;79274.56;;;6.61;65.45
63665;BME280;49820;33.966;73.390;2023-02-28T04:04:17;79278.56;;;6.56;62.60
63665;BME280;49820;33.966;73.390;2023-02-28T04:06:50;79295.09;;;6.70;62.61
63665;BME280;49820;33.966;73.390;2023-02-28T04:09:20;79290.41;;;6.89;63.43
63665;BME280;49820;33.966;73.390;2023-02-28T04:11:51;79316.94;;;6.93;61.25
63665;BME280;49820;33.966;73.390;2023-02-28T04:14:22;79310.28;;;6.94;61.46
63665;BME280;49820;33.966;73.390;2023-02-28T04:16:52;79291.06;;;6.87;61.50
63665;BME280;49820;33.966;73.390;2023-02-28T04:19:22;79291.00;;;6.98;62.19
63665;BME280;49820;33.966;73.390;2023-02-28T04:21:53;79316.81;;;7.23;61.24
63665;BME280;49820;33.966;73.390;2023-02-28T04:24:26;79315.50;;;7.22;56.25
63665;BME280;49820;33.966;73.390;2023-02-28T04:26:57;79326.03;;;7.39;58.67
63665;BME280;49820;33.966;73.390;2023-02-28T04:29:29;79311.41;;;7.44;56.70
63665;BME280;49820;33.966;73.390;2023-02-28T04:32:01;79335.22;;;7.68;57.73
63665;BME280;49820;33.966;73.390;2023-02-28T04:34:32;79337.13;;;7.82;53.42
63665;BME280;49820;33.966;73.390;2023-02-28T04:37:01;79327.72;;;7.95;52.80
63665;BME280;49820;33.966;73.390;2023-02-28T04:39:42;79303.13;;;7.98;53.63
63665;BME280;49820;33.966;73.390;2023-02-28T04:42:12;79307.66;;;8.12;52.35
63665;BME280;49820;33.966;73.390;2023-02-28T04:44:42;79319.47;;;8.39;52.79
63665;BME280;49820;33.966;73.390;2023-02-28T04:47:11;79339.94;;;8.61;50.95
63665;BME280;49820;33.966;73.390;2023-02-28T04:49:40;79334.63;;;8.59;51.15
63665;BME280;49820;33.966;73.390;2023-02-28T04:52:09;79331.34;;;8.53;52.50
63665;BME280;49820;33.966;73.390;2023-02-28T04:54:40;79347.78;;;8.77;51.84
63665;BME280;49820;33.966;73.390;2023-02-28T04:57:10;79357.78;;;8.77;47.47
63665;BME280;49820;33.966;73.390;2023-02-28T04:59:39;79352.16;;;9.09;45.18
63665;BME280;49820;33.966;73.390;2023-02-28T05:02:08;79344.28;;;8.97;49.47
63665;BME280;49820;33.966;73.390;2023-02-28T05:04:38;79324.81;;;9.13;51.53
63665;BME280;49820;33.966;73.390;2023-02-28T05:07:07;79358.72;;;9.23;53.16
63665;BME280;49820;33.966;73.390;2023-02-28T05:09:37;79360.63;;;9.32;51.79
63665;BME280;49820;33.966;73.390;2023-02-28T05:12:06;79321.50;;;9.08;53.08
63665;BME280;49820;33.966;73.390;2023-02-28T05:14:35;79360.38;;;9.52;53.26
63665;BME280;49820;33.966;73.390;2023-02-28T05:17:05;79345.25;;;9.35;53.50
63665;BME280;49820;33.966;73.390;2023-02-28T05:19:34;79364.47;;;9.43;55.85
63665;BME280;49820;33.966;73.390;2023-02-28T05:22:04;79371.97;;;9.27;51.68
63665;BME280;49820;33.966;73.390;2023-02-28T05:24:34;79366.03;;;9.24;49.61
63665;BME280;49820;33.966;73.390;2023-02-28T05:27:03;79377.13;;;9.45;54.46
63665;BME280;49820;33.966;73.390;2023-02-28T05:29:31;79352.69;;;9.24;53.49
63665;BME280;49820;33.966;73.390;2023-02-28T05:32:02;79377.91;;;9.33;54.50
63665;BME280;49820;33.966;73.390;2023-02-28T05:34:31;79372.88;;;9.03;55.03
63665;BME280;49820;33.966;73.390;2023-02-28T05:37:01;79376.34;;;8.87;56.07
63665;BME280;49820;33.966;73.390;2023-02-28T05:39:30;79365.81;;;8.75;53.54
63665;BME280;49820;33.966;73.390;2023-02-28T05:42:00;79376.38;;;8.83;53.46
63665;BME280;49820;33.966;73.390;2023-02-28T05:44:30;79371.81;;;8.73;54.46
63665;BME280;49820;33.966;73.390;2023-02-28T05:46:58;79375.06;;;8.80;53.50
63665;BME280;49820;33.966;73.390;2023-02-28T05:49:29;79354.44;;;8.78;53.61
63665;BME280;49820;33.966;73.390;2023-02-28T05:51:59;79378.25;;;8.97;55.12
63665;BME280;49820;33.966;73.390;2023-02-28T05:54:28;79375.59;;;8.99;53.65
63665;BME280;49820;33.966;73.390;2023-02-28T05:56:57;79363.19;;;8.67;54.09
63665;BME280;49820;33.966;73.390;2023-02-28T05:59:26;79383.19;;;8.66;55.85
63665;BME280;49820;33.966;73.390;2023-02-28T06:01:55;79384.47;;;8.69;56.94
63665;BME280;49820;33.966;73.390;2023-02-28T06:04:24;79373.91;;;8.59;59.12
63665;BME280;49820;33.966;73.390;2023-02-28T06:06:59;79381.38;;;8.38;62.30
63665;BME280;49820;33.966;73.390;2023-02-28T06:09:27;79396.72;;;8.33;66.16
63665;BME280;49820;33.966;73.390;2023-02-28T06:12:03;79383.56;;;8.03;66.21
63665;BME280;49820;33.966;73.390;2023-02-28T06:14:34;79392.09;;;8.24;66.32
63665;BME280;49820;33.966;73.390;2023-02-28T06:17:04;79392.41;;;7.69;65.57
63665;BME280;49820;33.966;73.390;2023-02-28T06:19:33;79401.66;;;7.76;67.38
63665;BME280;49820;33.966;73.390;2023-02-28T06:22:02;79407.03;;;7.66;66.64
63665;BME280;49820;33.966;73.390;2023-02-28T06:24:31;79391.78;;;7.54;66.47
63665;BME280;49820;33.966;73.390;2023-02-28T06:27:00;79411.72;;;7.57;71.92
63665;BME280;49820;33.966;73.390;2023-02-28T06:29:34;79407.78;;;7.44;74.82
63665;BME280;49820;33.966;73.390;2023-02-28T06:32:03;79376.56;;;7.35;77.06
63665;BME280;49820;33.966;73.390;2023-02-28T06:34:32;79395.19;;;7.37;75.90
63665;BME280;49820;33.966;73.390;2023-02-28T06:37:04;79392.38;;;7.71;73.32
63665;BME280;49820;33.966;73.390;2023-02-28T06:39:33;79367.75;;;7.75;73.97
63665;BME280;49820;33.966;73.390;2023-02-28T06:42:04;79396.94;;;7.93;75.10
63665;BME280;49820;33.966;73.390;2023-02-28T06:44:34;79375.97;;;7.18;77.62
63665;BME280;49820;33.966;73.390;2023-02-28T06:47:07;79393.13;;;7.47;83.95
63665;BME280;49820;33.966;73.390;2023-02-28T06:49:36;79374.63;;;7.21;87.16
63665;BME280;49820;33.966;73.390;2023-02-28T06:52:05;79401.22;;;7.15;84.56
63665;BME280;49820;33.966;73.390;2023-02-28T06:54:36;79380.69;;;6.93;87.46
63665;BME280;49820;33.966;73.390;2023-02-28T06:57:06;79403.91;;;6.99;90.48
63665;BME280;49820;33.966;73.390;2023-02-28T06:59:35;79350.19;;;6.78;88.20
63665;BME280;49820;33.966;73.390;2023-02-28T07:02:05;79373.44;;;6.41;92.20
63665;BME280;49820;33.966;73.390;2023-02-28T07:04:35;79398.69;;;6.30;100.00
63665;BME280;49820;33.966;73.390;2023-02-28T07:07:04;79396.66;;;6.18;100.00
63665;BME280;49820;33.966;73.390;2023-02-28T07:09:33;79399.34;;;6.30;100.00
63665;BME280;49820;33.966;73.390;2023-02-28T07:12:03;79389.97;;;5.68;100.00
63665;BME280;49820;33.966;73.390;2023-02-28T07:14:32;79399.91;;;5.58;100.00
63665;BME280;49820;33.966;73.390;2023-02-28T07:17:01;79378.00;;;5.35;100.00
63665;BME280;49820;33.966;73.390;2023-02-28T07:19:30;79373.28;;;5.13;100.00
63665;BME280;49820;33.966;73.390;2023-02-28T07:22:00;79366.69;;;5.26;100.00
63665;BME280;49820;33.966;73.390;2023-02-28T07:24:32;79380.63;;;5.35;100.00
63665;BME280;49820;33.966;73.390;2023-02-28T07:27:02;79372.63;;;5.15;100.00
63665;BME280;49820;33.966;73.390;2023-02-28T07:29:31;79368.72;;;5.40;100.00
63665;BME280;49820;33.966;73.390;2023-02-28T07:32:02;79334.84;;;5.02;100.00
63665;BME280;49820;33.966;73.390;2023-02-28T07:34:31;79375.97;;;5.27;100.00
63665;BME280;49820;33.966;73.390;2023-02-28T07:37:00;79363.91;;;4.88;100.00
63665;BME280;49820;33.966;73.390;2023-02-28T07:39:32;79372.50;;;4.82;100.00
63665;BME280;49820;33.966;73.390;2023-02-28T07:42:05;79342.09;;;4.95;100.00
63665;BME280;49820;33.966;73.390;2023-02-28T07:44:39;79365.31;;;5.09;100.00
63665;BME280;49820;33.966;73.390;2023-02-28T07:47:09;79342.81;;;5.02;100.00
63665;BME280;49820;33.966;73.390;2023-02-28T07:49:39;79360.03;;;5.15;100.00
63665;BME280;49820;33.966;73.390;2023-02-28T07:52:08;79315.56;;;4.73;100.00
63665;BME280;49820;33.966;73.390;2023-02-28T07:54:39;79349.31;;;4.81;100.00
63665;BME280;49820;33.966;73.390;2023-02-28T07:57:08;79346.03;;;4.78;100.00
63665;BME280;49820;33.966;73.390;2023-02-28T07:59:37;79342.69;;;4.76;100.00
63665;BME280;49820;33.966;73.390;2023-02-28T08:02:06;79334.75;;;4.70;100.00
63665;BME280;49820;33.966;73.390;2023-02-28T08:04:35;79290.31;;;4.48;100.00
63665;BME280;49820;33.966;73.390;2023-02-28T08:07:05;79296.34;;;4.65;100.00
63665;BME280;49820;33.966;73.390;2023-02-28T08:09:34;79302.94;;;4.64;100.00
63665;BME280;49820;33.966;73.390;2023-02-28T08:12:03;79320.25;;;4.85;100.00
63665;BME280;49820;33.966;73.390;2023-02-28T08:14:33;79319.63;;;4.98;100.00
63665;BME280;49820;33.966;73.390;2023-02-28T08:17:03;79301.09;;;5.09;100.00
63665;BME280;49820;33.966;73.390;2023-02-28T08:19:32;79305.75;;;5.10;100.00
63665;BME280;49820;33.966;73.390;2023-02-28T08:22:01;79261.41;;;5.37;100.00
63665;BME280;49820;33.966;73.390;2023-02-28T08:24:30;79275.28;;;5.07;100.00
63665;BME280;49820;33.966;73.390;2023-02-28T08:26:59;79279.25;;;5.14;100.00
63665;BME280;49820;33.966;73.390;2023-02-28T08:29:28;79299.09;;;4.93;100.00
63665;BME280;49820;33.966;73.390;2023-02-28T08:31:58;79312.94;;;4.75;100.00
63665;BME280;49820;33.966;73.390;2023-02-28T08:34:27;79301.63;;;4.58;100.00
63665;BME280;49820;33.966;73.390;2023-02-28T08:36:58;79308.97;;;4.76;100.00
63665;BME280;49820;33.966;73.390;2023-02-28T08:39:27;79289.72;;;4.66;100.00
63665;BME280;49820;33.966;73.390;2023-02-28T08:41:57;79277.75;;;4.42;100.00
63665;BME280;49820;33.966;73.390;2023-02-28T08:44:34;79293.03;;;4.60;100.00
63665;BME280;49820;33.966;73.390;2023-02-28T08:47:04;79275.16;;;4.56;100.00
63665;BME280;49820;33.966;73.390;2023-02-28T08:49:33;79260.53;;;4.39;100.00
63665;BME280;49820;33.966;73.390;2023-02-28T08:52:01;79291.00;;;4.44;100.00
63665;BME280;49820;33.966;73.390;2023-02-28T08:54:31;79272.41;;;4.30;100.00
63665;BME280;49820;33.966;73.390;2023-02-28T08:57:02;79252.50;;;4.11;100.00
63665;BME280;49820;33.966;73.390;2023-02-28T08:59:32;79284.38;;;4.43;100.00
63665;BME280;49820;33.966;73.390;2023-02-28T09:02:01;79282.34;;;4.40;100.00
63665;BME280;49820;33.966;73.390;2023-02-28T09:04:31;79276.38;;;4.33;100.00
63665;BME280;49820;33.966;73.390;2023-02-28T09:07:00;79267.81;;;4.39;100.00
63665;BME280;49820;33.966;73.390;2023-02-28T09:09:29;79268.44;;;4.27;100.00
63665;BME280;49820;33.966;73.390;2023-02-28T09:11:59;79278.41;;;4.41;100.00
63665;BME280;49820;33.966;73.390;2023-02-28T09:14:28;79267.75;;;4.27;100.00
63665;BME280;49820;33.966;73.390;2023-02-28T09:16:58;79244.50;;;3.97;100.00
63665;BME280;49820;33.966;73.390;2023-02-28T09:19:27;79266.38;;;4.11;100.00
63665;BME280;49820;33.966;73.390;2023-02-28T09:21:59;79266.25;;;3.87;100.00
63665;BME280;49820;33.966;73.390;2023-02-28T09:24:29;79244.41;;;3.78;100.00
63665;BME280;49820;33.966;73.390;2023-02-28T09:27:00;79276.88;;;3.97;100.00
63665;BME280;49820;33.966;73.390;2023-02-28T09:29:34;79276.06;;;3.68;100.00
63665;BME280;49820;33.966;73.390;2023-02-28T09:32:04;79276.13;;;3.78;100.00
63665;BME280;49820;33.966;73.390;2023-02-28T09:34:35;79258.19;;;3.63;100.00
63665;BME280;49820;33.966;73.390;2023-02-28T09:37:05;79256.22;;;3.67;100.00
63665;BME280;49820;33.966;73.390;2023-02-28T09:39:34;79246.88;;;3.50;100.00
63665;BME280;49820;33.966;73.390;2023-02-28T09:42:04;79253.50;;;3.51;100.00
63665;BME280;49820;33.966;73.390;2023-02-28T09:44:42;79265.53;;;3.76;100.00
63665;BME280;49820;33.966;73.390;2023-02-28T09:47:30;79270.19;;;3.80;100.00
63665;BME280;49820;33.966;73.390;2023-02-28T09:50:22;79262.25;;;3.80;100.00
63665;BME280;49820;33.966;73.390;2023-02-28T09:52:55;79257.63;;;3.78;100.00
63665;BME280;49820;33.966;73.390;2023-02-28T09:57:56;79250.31;;;3.75;100.00
63665;BME280;49820;33.966;73.390;2023-02-28T10:00:39;79250.34;;;3.77;100.00
63665;BME280;49820;33.966;73.390;2023-02-28T10:08:32;79260.75;;;3.53;100.00
63665;BME280;49820;33.966;73.390;2023-02-28T10:14:28;79260.13;;;3.56;100.00
63665;BME280;49820;33.966;73.390;2023-02-28T10:20:24;79224.38;;;3.41;100.00
63665;BME280;49820;33.966;73.390;2023-02-28T10:23:31;79254.75;;;3.42;100.00
63665;BME280;49820;33.966;73.390;2023-02-28T10:26:12;79238.25;;;3.43;100.00
63665;BME280;49820;33.966;73.390;2023-02-28T10:31:39;79252.16;;;3.48;100.00
63665;BME280;49820;33.966;73.390;2023-02-28T10:36:26;79233.63;;;3.40;100.00
63665;BME280;49820;33.966;73.390;2023-02-28T10:38:58;79226.31;;;3.34;100.00
63665;BME280;49820;33.966;73.390;2023-02-28T10:41:32;79212.38;;;3.26;100.00
